createdAt,value
2019-04-22T00:02:29.908Z,86.40
2019-04-22T00:05:11.934Z,86.50
2019-04-22T00:07:59.310Z,86.70
2019-04-22T00:10:26.551Z,86.60
2019-04-22T00:15:20.120Z,86.80
2019-04-22T00:18:05.834Z,86.90
2019-04-22T00:20:30.411Z,87.00
2019-04-22T00:22:56.664Z,87.00
2019-04-22T00:25:45.909Z,87.10
2019-04-22T00:28:02.445Z,87.20
2019-04-22T00:30:31.639Z,87.30
2019-04-22T00:33:04.792Z,87.40
2019-04-22T00:35:38.303Z,87.40
2019-04-22T00:38:14.293Z,87.50
2019-04-22T00:40:39.309Z,87.50
2019-04-22T00:43:10.083Z,87.60
2019-04-22T00:48:16.212Z,87.70
2019-04-22T00:50:49.096Z,87.70
2019-04-22T00:53:20.195Z,87.80
2019-04-22T00:56:00.330Z,87.80
2019-04-22T00:58:31.184Z,88.00
2019-04-22T01:01:04.666Z,88.10
2019-04-22T01:03:38.630Z,88.00
2019-04-22T01:06:08.024Z,88.00
2019-04-22T01:08:40.353Z,88.10
2019-04-22T01:11:04.789Z,88.20
2019-04-22T01:13:34.685Z,88.30
2019-04-22T01:16:04.546Z,88.30
2019-04-22T01:18:29.446Z,88.40
2019-04-22T01:23:27.991Z,88.50
2019-04-22T01:25:56.952Z,88.40
2019-04-22T01:28:23.855Z,88.40
2019-04-22T01:30:51.450Z,88.50
2019-04-22T01:33:19.467Z,88.40
2019-04-22T01:36:01.440Z,88.40
2019-04-22T01:38:31.325Z,88.50
2019-04-22T01:41:16.416Z,88.50
2019-04-22T01:43:45.153Z,88.50
2019-04-22T01:46:08.514Z,88.50
2019-04-22T01:48:44.817Z,88.70
2019-04-22T01:51:08.162Z,88.80
2019-04-22T01:53:43.421Z,88.80
2019-04-22T01:56:14.037Z,88.80
2019-04-22T01:58:36.294Z,89.10
2019-04-22T02:01:14.740Z,88.90
2019-04-22T02:03:46.795Z,88.70
2019-04-22T02:06:13.673Z,88.70
2019-04-22T02:11:17.684Z,88.70
2019-04-22T02:13:52.293Z,88.90
2019-04-22T02:16:14.235Z,88.50
2019-04-22T02:18:49.109Z,88.70
2019-04-22T02:21:16.740Z,88.50
2019-04-22T02:26:27.213Z,88.70
2019-04-22T02:29:01.877Z,88.40
2019-04-22T02:41:28.432Z,88.00
2019-04-22T02:46:45.068Z,88.00
2019-04-22T02:49:04.170Z,88.00
2019-04-22T02:54:22.296Z,88.00
2019-04-22T02:56:38.241Z,87.70
2019-04-22T03:01:31.359Z,87.40
2019-04-22T03:09:03.818Z,87.10
2019-04-22T03:14:01.428Z,86.90
2019-04-22T03:16:34.915Z,86.80
2019-04-22T03:19:05.885Z,86.60
2019-04-22T03:21:31.911Z,86.50
2019-04-22T03:24:20.231Z,86.40
2019-04-22T03:26:35.119Z,86.30
2019-04-22T03:29:04.770Z,86.10
2019-04-22T03:32:24.553Z,86.00
2019-04-22T03:39:38.056Z,86.00
2019-04-22T03:42:07.482Z,85.90
2019-04-22T03:44:31.226Z,85.80
2019-04-22T03:52:05.421Z,85.40
2019-04-22T03:59:33.484Z,85.10
2019-04-22T04:04:41.605Z,84.60
2019-04-22T04:07:22.151Z,84.50
2019-04-22T04:12:00.004Z,84.20
2019-04-22T04:14:47.157Z,84.10
2019-04-22T04:19:34.963Z,84.00
2019-04-22T04:21:57.860Z,84.00
2019-04-22T04:27:06.746Z,84.00
2019-04-22T04:32:29.938Z,84.00
2019-04-22T04:34:56.378Z,84.00
2019-04-22T04:37:07.270Z,84.10
2019-04-22T04:39:36.406Z,83.90
2019-04-22T04:44:47.869Z,84.40
2019-04-22T04:47:20.711Z,83.80
2019-04-22T04:49:39.261Z,83.80
2019-04-22T04:52:12.231Z,83.90
2019-04-22T04:57:26.005Z,84.00
2019-04-22T05:02:06.364Z,84.10
2019-04-22T05:04:46.484Z,84.20
2019-04-22T05:07:08.731Z,84.10
2019-04-22T05:12:12.272Z,84.20
2019-04-22T05:14:32.795Z,84.30
2019-04-22T05:17:12.994Z,84.10
2019-04-22T05:19:32.431Z,83.80
2019-04-22T05:22:07.698Z,83.80
2019-04-22T05:29:41.931Z,83.50
2019-04-22T05:32:01.481Z,83.40
2019-04-22T05:34:35.083Z,83.20
2019-04-22T05:37:22.418Z,83.20
2019-04-22T05:39:31.090Z,82.90
2019-04-22T05:44:39.550Z,82.70
2019-04-22T05:47:02.699Z,82.90
2019-04-22T05:49:47.753Z,82.60
2019-04-22T05:52:05.231Z,82.30
2019-04-22T05:54:33.061Z,82.40
2019-04-22T05:57:11.041Z,82.00
2019-04-22T05:59:40.858Z,82.00
2019-04-22T06:02:21.074Z,82.10
2019-04-22T06:04:39.084Z,81.80
2019-04-22T06:07:06.596Z,81.70
2019-04-22T06:09:39.822Z,81.30
2019-04-22T06:12:10.275Z,81.00
2019-04-22T06:14:37.023Z,81.90
2019-04-22T06:17:20.582Z,80.30
2019-04-22T06:19:44.940Z,80.00
2019-04-22T06:22:23.859Z,79.30
2019-04-22T06:24:53.608Z,79.20
2019-04-22T06:27:21.165Z,78.90
2019-04-22T06:29:44.375Z,78.50
2019-04-22T06:32:26.430Z,78.10
2019-04-22T06:34:51.395Z,78.10
2019-04-22T06:37:25.748Z,77.30
2019-04-22T06:39:55.406Z,76.60
2019-04-22T06:44:57.914Z,76.00
2019-04-22T06:47:40.020Z,74.60
2019-04-22T06:49:57.325Z,74.40
2019-04-22T06:52:22.661Z,73.90
2019-04-22T06:54:57.417Z,73.40
2019-04-22T06:57:25.594Z,73.90
2019-04-22T07:00:00.763Z,72.80
2019-04-22T07:02:33.822Z,72.70
2019-04-22T07:04:56.288Z,72.40
2019-04-22T07:07:24.075Z,73.70
2019-04-22T07:10:23.749Z,72.60
2019-04-22T07:12:29.154Z,72.40
2019-04-22T07:15:21.839Z,72.50
2019-04-22T07:17:31.019Z,72.20
2019-04-22T07:20:00.026Z,72.20
2019-04-22T07:22:28.152Z,71.90
2019-04-22T07:24:58.978Z,71.90
2019-04-22T07:27:32.120Z,71.90
2019-04-22T07:30:03.547Z,71.00
2019-04-22T07:32:53.786Z,71.00
2019-04-22T07:35:01.155Z,70.90
2019-04-22T07:37:41.985Z,70.30
2019-04-22T07:39:56.284Z,70.20
2019-04-22T07:42:32.719Z,70.50
2019-04-22T07:45:08.654Z,69.30
2019-04-22T07:47:38.031Z,69.50
2019-04-22T07:50:05.451Z,69.20
2019-04-22T07:52:33.389Z,68.70
2019-04-22T07:55:13.460Z,69.00
2019-04-22T07:57:32.788Z,68.20
2019-04-22T08:00:09.006Z,67.60
2019-04-22T08:02:37.867Z,67.90
2019-04-22T08:05:18.797Z,67.70
2019-04-22T08:07:34.616Z,68.20
2019-04-22T08:12:43.022Z,66.20
2019-04-22T08:15:05.449Z,64.10
2019-04-22T08:20:10.732Z,62.90
2019-04-22T08:22:37.559Z,61.50
2019-04-22T08:25:08.250Z,60.10
2019-04-22T08:27:39.532Z,60.30
2019-04-22T08:32:41.664Z,57.50
2019-04-22T08:35:13.002Z,57.20
2019-04-22T08:40:15.416Z,54.40
2019-04-22T08:45:23.081Z,54.40
2019-04-22T08:52:41.816Z,54.50
2019-04-22T08:55:11.219Z,54.00
2019-04-22T08:58:03.677Z,53.70
2019-04-22T09:00:15.268Z,54.00
2019-04-22T09:05:22.768Z,51.90
2019-04-22T09:07:59.791Z,53.00
2019-04-22T09:10:10.187Z,53.70
2019-04-22T09:12:57.907Z,50.90
2019-04-22T09:15:15.885Z,52.20
2019-04-22T09:17:53.078Z,52.00
2019-04-22T09:20:15.584Z,52.40
2019-04-22T09:22:41.046Z,52.70
2019-04-22T09:25:10.331Z,52.40
2019-04-22T09:27:44.310Z,50.90
2019-04-22T09:30:24.052Z,50.10
2019-04-22T09:32:45.479Z,51.70
2019-04-22T09:35:15.894Z,48.50
2019-04-22T09:37:50.280Z,49.50
2019-04-22T09:40:20.212Z,49.10
2019-04-22T09:42:51.295Z,48.40
2019-04-22T09:45:19.010Z,49.10
2019-04-22T09:50:22.338Z,48.40
2019-04-22T09:52:48.938Z,47.10
2019-04-22T09:55:18.004Z,46.60
2019-04-22T09:57:46.981Z,48.50
2019-04-22T10:00:13.841Z,48.00
2019-04-22T10:02:55.446Z,47.50
2019-04-22T10:05:21.184Z,47.70
2019-04-22T10:07:52.471Z,47.00
2019-04-22T10:10:35.464Z,47.30
2019-04-22T10:12:48.210Z,48.10
2019-04-22T10:15:23.037Z,45.10
2019-04-22T10:17:54.793Z,45.00
2019-04-22T10:20:24.951Z,45.70
2019-04-22T10:22:57.572Z,46.70
2019-04-22T10:25:23.192Z,44.00
2019-04-22T10:27:55.196Z,43.90
2019-04-22T10:30:33.321Z,45.20
2019-04-22T10:32:56.269Z,42.10
2019-04-22T10:35:12.235Z,42.20
2019-04-22T10:37:36.580Z,43.90
2019-04-22T10:40:11.280Z,42.40
2019-04-22T10:42:43.370Z,42.90
2019-04-22T10:45:12.577Z,42.00
2019-04-22T10:47:42.335Z,42.70
2019-04-22T10:50:12.282Z,38.80
2019-04-22T10:55:17.507Z,38.90
2019-04-22T10:57:46.398Z,40.80
2019-04-22T11:00:15.751Z,39.70
2019-04-22T11:02:45.718Z,37.40
2019-04-22T11:05:14.881Z,38.50
2019-04-22T11:07:51.419Z,37.70
2019-04-22T11:10:34.614Z,37.40
2019-04-22T11:12:49.299Z,39.00
2019-04-22T11:15:18.330Z,37.60
2019-04-22T11:17:47.752Z,35.10
2019-04-22T11:20:17.642Z,36.90
2019-04-22T11:22:46.728Z,38.50
2019-04-22T11:25:16.089Z,36.60
2019-04-22T11:27:44.954Z,38.90
2019-04-22T11:30:18.456Z,35.10
2019-04-22T11:32:46.555Z,35.70
2019-04-22T11:35:16.167Z,35.80
2019-04-22T11:37:46.487Z,35.90
2019-04-22T11:40:23.995Z,35.50
2019-04-22T11:42:48.102Z,32.10
2019-04-22T11:45:17.619Z,32.20
2019-04-22T11:47:47.489Z,30.10
2019-04-22T11:50:17.755Z,32.70
2019-04-22T11:52:46.926Z,34.20
2019-04-22T11:55:19.047Z,34.50
2019-04-22T11:57:49.787Z,33.00
2019-04-22T12:00:22.821Z,33.20
2019-04-22T12:02:51.675Z,32.60
2019-04-22T12:05:21.765Z,30.30
2019-04-22T12:07:51.012Z,32.50
2019-04-22T12:10:30.930Z,31.90
2019-04-22T12:12:51.948Z,32.90
2019-04-22T12:15:20.586Z,31.90
2019-04-22T12:17:49.297Z,31.00
2019-04-22T12:20:21.767Z,30.90
2019-04-22T12:23:12.717Z,30.50
2019-04-22T12:25:48.728Z,30.50
2019-04-22T12:28:12.981Z,30.40
2019-04-22T12:30:41.857Z,29.80
2019-04-22T12:33:12.638Z,31.10
2019-04-22T12:35:42.104Z,31.50
2019-04-22T12:38:13.130Z,30.50
2019-04-22T12:40:49.596Z,31.10
2019-04-22T12:43:12.812Z,31.10
2019-04-22T12:45:42.522Z,31.60
2019-04-22T12:48:12.723Z,31.10
2019-04-22T12:50:44.001Z,29.70
2019-04-22T12:53:16.751Z,27.80
2019-04-22T12:55:42.133Z,28.90
2019-04-22T12:58:11.853Z,28.30
2019-04-22T13:00:40.617Z,29.70
2019-04-22T13:03:09.348Z,29.00
2019-04-22T13:05:40.995Z,28.70
2019-04-22T13:08:09.794Z,30.00
2019-04-22T13:10:46.883Z,29.80
2019-04-22T13:13:09.223Z,29.60
2019-04-22T13:15:39.229Z,28.90
2019-04-22T13:18:17.535Z,27.90
2019-04-22T13:20:40.297Z,28.30
2019-04-22T13:23:09.480Z,28.70
2019-04-22T13:25:38.879Z,28.40
2019-04-22T13:28:09.251Z,27.70
2019-04-22T13:30:38.628Z,27.70
2019-04-22T13:33:07.496Z,27.00
2019-04-22T13:35:36.272Z,27.80
2019-04-22T13:38:05.010Z,27.10
2019-04-22T13:40:34.871Z,24.10
2019-04-22T13:43:04.858Z,25.60
2019-04-22T13:45:33.970Z,26.20
2019-04-22T13:48:16.436Z,26.20
2019-04-22T13:51:14.763Z,25.20
2019-04-22T13:55:56.901Z,24.30
2019-04-22T13:58:17.101Z,24.60
2019-04-22T14:00:36.390Z,24.70
2019-04-22T14:03:08.732Z,26.10
2019-04-22T14:05:40.490Z,25.20
2019-04-22T14:08:10.704Z,25.50
2019-04-22T14:10:40.586Z,25.40
2019-04-22T14:13:09.922Z,24.90
2019-04-22T14:15:40.145Z,23.80
2019-04-22T14:18:08.939Z,23.40
2019-04-22T14:20:38.678Z,24.40
2019-04-22T14:23:09.424Z,24.60
2019-04-22T14:25:38.709Z,24.00
2019-04-22T14:28:13.125Z,23.60
2019-04-22T14:30:38.822Z,23.20
2019-04-22T14:33:07.516Z,23.50
2019-04-22T14:35:38.023Z,22.90
2019-04-22T14:38:07.940Z,21.60
2019-04-22T14:40:38.510Z,22.00
2019-04-22T14:43:29.039Z,22.40
2019-04-22T14:46:17.772Z,22.40
2019-04-22T14:48:35.954Z,22.10
2019-04-22T14:50:57.703Z,22.70
2019-04-22T14:53:30.915Z,22.70
2019-04-22T14:55:40.379Z,21.60
2019-04-22T14:58:09.282Z,21.40
2019-04-22T15:00:38.360Z,21.50
2019-04-22T15:03:08.229Z,19.90
2019-04-22T15:05:38.153Z,21.40
2019-04-22T15:08:07.173Z,20.30
2019-04-22T15:10:36.294Z,20.90
2019-04-22T15:13:05.602Z,20.80
2019-04-22T15:15:44.217Z,21.20
2019-04-22T15:18:11.622Z,19.20
2019-04-22T15:20:58.268Z,18.70
2019-04-22T15:23:28.571Z,18.90
2019-04-22T15:25:58.822Z,19.80
2019-04-22T15:28:29.234Z,19.90
2019-04-22T15:30:59.375Z,20.20
2019-04-22T15:33:29.525Z,18.90
2019-04-22T15:35:59.054Z,18.70
2019-04-22T15:38:28.283Z,19.00
2019-04-22T15:40:58.577Z,19.10
2019-04-22T15:43:30.903Z,19.40
2019-04-22T15:46:00.461Z,19.00
2019-04-22T15:48:32.450Z,19.50
2019-04-22T15:51:00.815Z,18.30
2019-04-22T15:53:29.760Z,19.10
2019-04-22T15:55:58.848Z,18.80
2019-04-22T15:58:28.192Z,18.30
2019-04-22T16:01:08.763Z,18.50
2019-04-22T16:03:27.116Z,18.90
2019-04-22T16:05:55.771Z,19.20
2019-04-22T16:08:26.738Z,19.30
2019-04-22T16:10:55.844Z,19.70
2019-04-22T16:13:28.372Z,19.80
2019-04-22T16:15:56.152Z,18.30
2019-04-22T16:18:26.318Z,19.60
2019-04-22T16:20:56.442Z,19.10
2019-04-22T16:23:36.471Z,18.80
2019-04-22T16:26:07.577Z,19.80
2019-04-22T16:28:37.517Z,19.70
2019-04-22T16:31:07.230Z,19.20
2019-04-22T16:33:39.717Z,19.20
2019-04-22T16:36:07.292Z,19.20
2019-04-22T16:38:37.242Z,19.40
2019-04-22T16:41:06.634Z,20.10
2019-04-22T16:43:36.467Z,19.50
2019-04-22T16:46:05.678Z,19.70
2019-04-22T16:48:35.690Z,19.70
2019-04-22T16:51:06.205Z,19.80
2019-04-22T16:53:35.109Z,20.80
2019-04-22T16:56:04.762Z,20.50
2019-04-22T16:58:34.610Z,21.00
2019-04-22T17:01:06.654Z,20.90
2019-04-22T17:03:54.469Z,21.40
2019-04-22T17:06:25.676Z,21.20
2019-04-22T17:08:55.174Z,20.80
2019-04-22T17:11:25.546Z,21.80
2019-04-22T17:13:55.190Z,22.20
2019-04-22T17:16:24.321Z,22.80
2019-04-22T17:18:54.233Z,22.50
2019-04-22T17:21:23.628Z,23.00
2019-04-22T17:23:53.843Z,23.20
2019-04-22T17:26:24.168Z,23.20
2019-04-22T17:28:53.547Z,24.00
2019-04-22T17:31:22.817Z,23.90
2019-04-22T17:33:52.998Z,24.70
2019-04-22T17:36:22.451Z,25.00
2019-04-22T17:39:01.185Z,25.60
2019-04-22T17:41:34.427Z,25.80
2019-04-22T17:44:18.944Z,26.40
2019-04-22T17:46:48.291Z,26.60
2019-04-22T17:49:35.634Z,26.70
2019-04-22T17:52:30.491Z,27.60
2019-04-22T17:54:48.205Z,27.80
2019-04-22T17:57:22.512Z,28.50
2019-04-22T17:59:46.707Z,28.80
2019-04-22T18:02:15.595Z,29.20
2019-04-22T18:04:41.497Z,29.60
2019-04-22T18:07:31.250Z,30.00
2019-04-22T18:10:21.038Z,31.20
2019-04-22T18:12:33.819Z,31.20
2019-04-22T18:14:59.490Z,31.40
2019-04-22T18:17:27.391Z,31.70
2019-04-22T18:19:51.729Z,32.90
2019-04-22T18:22:19.960Z,33.00
2019-04-22T18:24:51.618Z,33.40
2019-04-22T18:29:54.598Z,34.50
2019-04-22T18:32:16.543Z,34.80
2019-04-22T18:34:44.295Z,34.90
2019-04-22T18:37:19.884Z,35.50
2019-04-22T18:39:56.848Z,35.90
2019-04-22T18:42:23.413Z,36.20
2019-04-22T18:45:06.594Z,36.80
2019-04-22T18:47:18.476Z,37.00
2019-04-22T18:49:49.005Z,37.30
2019-04-22T18:52:48.774Z,37.60
2019-04-22T18:55:28.188Z,38.10
2019-04-22T18:58:02.803Z,38.50
2019-04-22T19:00:23.478Z,38.70
2019-04-22T19:03:00.706Z,39.20
2019-04-22T19:05:40.405Z,40.00
2019-04-22T19:15:53.906Z,42.10
2019-04-22T19:18:24.587Z,42.60
2019-04-22T19:20:52.011Z,43.40
2019-04-22T19:23:27.068Z,44.50
2019-04-22T19:25:46.608Z,44.60
2019-04-22T19:28:27.378Z,44.90
2019-04-22T19:31:01.487Z,45.50
2019-04-22T19:33:25.058Z,46.40
2019-04-22T19:35:51.996Z,46.80
2019-04-22T19:38:14.069Z,46.80
2019-04-22T19:41:00.906Z,46.90
2019-04-22T19:43:25.498Z,47.10
2019-04-22T19:45:56.197Z,47.40
2019-04-22T19:48:34.512Z,47.60
2019-04-22T19:50:57.521Z,47.80
2019-04-22T19:53:33.614Z,48.20
2019-04-22T19:55:49.851Z,48.70
2019-04-22T19:58:24.392Z,48.80
2019-04-22T20:00:54.600Z,49.20
2019-04-22T20:03:43.018Z,49.40
2019-04-22T20:06:27.151Z,49.50
2019-04-22T20:08:59.283Z,49.60
2019-04-22T20:11:29.672Z,49.80
2019-04-22T20:14:02.651Z,50.10
2019-04-22T20:16:27.409Z,50.20
2019-04-22T20:19:06.899Z,50.50
2019-04-22T20:21:28.671Z,50.40
2019-04-22T20:23:53.069Z,50.20
2019-04-22T20:26:26.221Z,50.30
2019-04-22T20:28:57.638Z,50.20
2019-04-22T20:31:36.122Z,50.20
2019-04-22T20:34:09.135Z,50.10
2019-04-22T20:36:55.389Z,50.20
2019-04-22T20:38:58.770Z,49.90
2019-04-22T20:41:31.455Z,50.00
2019-04-22T20:44:09.937Z,49.60
2019-04-22T20:46:31.902Z,49.50
2019-04-22T20:49:09.245Z,49.50
2019-04-22T20:51:47.558Z,49.30
2019-04-22T20:54:07.454Z,49.20
2019-04-22T20:56:33.793Z,49.20
2019-04-22T20:59:08.534Z,49.10
2019-04-22T21:01:41.633Z,49.00
2019-04-22T21:03:54.802Z,49.40
2019-04-22T21:06:36.839Z,49.20
2019-04-22T21:09:10.184Z,49.30
2019-04-22T21:11:34.341Z,49.60
2019-04-22T21:14:05.858Z,49.60
2019-04-22T21:16:38.123Z,49.30
2019-04-22T21:19:18.661Z,49.10
2019-04-22T21:21:43.627Z,49.00
2019-04-22T21:23:59.679Z,48.50
2019-04-22T21:26:36.569Z,48.60
2019-04-22T21:29:07.214Z,48.40
2019-04-22T21:31:38.914Z,48.70
2019-04-22T21:34:05.290Z,48.80
2019-04-22T21:36:43.005Z,48.60
2019-04-22T21:39:06.760Z,48.80
2019-04-22T21:41:43.238Z,48.80
2019-04-22T21:44:10.279Z,49.00
2019-04-22T21:46:44.352Z,49.30
2019-04-22T21:49:16.576Z,49.50
2019-04-22T21:51:48.042Z,49.60
2019-04-22T21:54:15.333Z,49.90
2019-04-22T21:57:13.069Z,50.50
2019-04-22T21:59:32.091Z,50.90
2019-04-22T22:02:13.932Z,51.10
2019-04-22T22:04:31.829Z,51.30
2019-04-22T22:06:55.372Z,51.60
2019-04-22T22:09:39.149Z,51.90
2019-04-22T22:12:05.289Z,52.10
2019-04-22T22:14:33.561Z,52.20
2019-04-22T22:16:56.123Z,53.50
2019-04-22T22:19:38.196Z,53.10
2019-04-22T22:22:15.179Z,53.40
2019-04-22T22:24:41.461Z,53.60
2019-04-22T22:27:11.001Z,54.10
2019-04-22T22:29:50.463Z,54.40
2019-04-22T22:32:12.983Z,54.70
2019-04-22T22:34:39.485Z,55.20
2019-04-22T22:37:01.505Z,55.30
2019-04-22T22:39:34.041Z,55.80
2019-04-22T22:41:51.915Z,56.20
2019-04-22T22:44:27.241Z,56.50
2019-04-22T22:47:08.409Z,57.00
2019-04-22T22:49:46.993Z,57.10
2019-04-22T22:52:40.898Z,57.80
2019-04-22T22:54:46.377Z,57.70
2019-04-22T22:57:23.438Z,58.30
2019-04-22T22:59:44.127Z,58.50
2019-04-22T23:02:13.973Z,58.70
2019-04-22T23:04:45.492Z,59.20
2019-04-22T23:07:17.274Z,59.30
2019-04-22T23:09:44.634Z,60.80
2019-04-22T23:12:31.256Z,60.00
2019-04-22T23:14:44.219Z,60.10
2019-04-22T23:17:01.902Z,60.00
2019-04-22T23:19:26.086Z,60.80
2019-04-22T23:24:50.224Z,60.70
2019-04-22T23:27:22.825Z,60.60
2019-04-22T23:29:53.246Z,61.40
2019-04-22T23:32:25.303Z,61.20
2019-04-22T23:35:08.016Z,61.40
2019-04-22T23:37:39.612Z,61.40
2019-04-22T23:40:17.439Z,62.00
2019-04-22T23:42:44.807Z,61.60
2019-04-22T23:45:15.754Z,62.20
2019-04-22T23:47:35.144Z,62.20
2019-04-22T23:50:12.495Z,62.30
2019-04-22T23:52:49.407Z,63.40
2019-04-22T23:55:14.725Z,63.30
2019-04-22T23:57:47.093Z,63.10
